createdAt,value
2022-08-26T00:01:30.913Z,68.76
2022-08-26T00:03:58.342Z,69.55
2022-08-26T00:06:25.565Z,70.20
2022-08-26T00:08:52.076Z,70.28
2022-08-26T00:11:26.635Z,71.32
2022-08-26T00:13:54.180Z,72.27
2022-08-26T00:16:20.648Z,71.75
2022-08-26T00:18:47.267Z,71.90
2022-08-26T00:21:13.667Z,72.00
2022-08-26T00:23:40.521Z,72.23
2022-08-26T00:26:07.005Z,71.60
2022-08-26T00:28:35.278Z,70.71
2022-08-26T00:31:01.836Z,70.70
2022-08-26T00:33:28.339Z,71.77
2022-08-26T00:35:54.834Z,72.13
2022-08-26T00:38:23.013Z,72.52
2022-08-26T00:40:53.531Z,72.47
2022-08-26T00:43:22.545Z,72.31
2022-08-26T00:46:11.823Z,72.25
2022-08-26T00:48:42.266Z,71.65
2022-08-26T00:51:15.309Z,70.98
2022-08-26T00:53:48.676Z,71.40
2022-08-26T00:56:25.594Z,71.57
2022-08-26T00:58:53.314Z,72.97
2022-08-26T01:01:19.832Z,73.86
2022-08-26T01:03:49.823Z,74.19
2022-08-26T01:06:16.978Z,73.43
2022-08-26T01:08:43.504Z,73.17
2022-08-26T01:11:11.570Z,72.84
2022-08-26T01:13:38.788Z,72.50
2022-08-26T01:16:10.448Z,72.13
2022-08-26T01:18:37.190Z,72.45
2022-08-26T01:21:17.884Z,73.06
2022-08-26T01:23:48.245Z,74.18
2022-08-26T01:26:42.630Z,74.89
2022-08-26T01:29:13.497Z,74.78
2022-08-26T01:31:46.737Z,74.71
2022-08-26T01:34:27.550Z,74.91
2022-08-26T01:37:19.871Z,74.76
2022-08-26T01:39:52.774Z,74.66
2022-08-26T01:42:22.320Z,74.73
2022-08-26T01:45:01.271Z,74.64
2022-08-26T01:47:31.381Z,74.18
2022-08-26T01:50:02.975Z,74.41
2022-08-26T01:52:32.627Z,74.37
2022-08-26T01:54:59.813Z,74.69
2022-08-26T01:57:27.105Z,75.30
2022-08-26T01:59:57.500Z,75.47
2022-08-26T02:02:24.526Z,75.03
2022-08-26T02:04:59.674Z,74.97
2022-08-26T02:07:27.774Z,75.23
2022-08-26T02:09:55.384Z,75.42
2022-08-26T02:12:22.426Z,75.80
2022-08-26T02:14:58.129Z,77.13
2022-08-26T02:17:33.569Z,77.45
2022-08-26T02:20:02.218Z,77.68
2022-08-26T02:22:31.091Z,77.96
2022-08-26T02:25:09.137Z,77.80
2022-08-26T02:27:37.312Z,78.05
2022-08-26T02:30:13.208Z,78.30
2022-08-26T02:32:40.209Z,78.65
2022-08-26T02:35:09.602Z,77.84
2022-08-26T02:37:36.120Z,77.88
2022-08-26T02:40:05.236Z,78.07
2022-08-26T02:42:32.270Z,78.33
2022-08-26T02:44:59.250Z,78.22
2022-08-26T02:47:29.088Z,78.39
2022-08-26T02:49:55.849Z,78.71
2022-08-26T02:52:22.287Z,79.24
2022-08-26T02:54:49.625Z,79.05
2022-08-26T02:57:16.943Z,78.36
2022-08-26T02:59:43.669Z,77.56
2022-08-26T03:02:11.216Z,77.23
2022-08-26T03:04:39.760Z,76.45
2022-08-26T03:07:07.110Z,76.54
2022-08-26T03:09:33.882Z,76.82
2022-08-26T03:12:00.939Z,77.00
2022-08-26T03:14:27.533Z,77.04
2022-08-26T03:16:54.684Z,76.92
2022-08-26T03:19:23.986Z,76.43
2022-08-26T03:21:51.722Z,76.42
2022-08-26T03:24:19.856Z,76.28
2022-08-26T03:26:52.752Z,76.00
2022-08-26T03:29:43.626Z,77.14
2022-08-26T03:32:12.642Z,78.00
2022-08-26T03:34:39.164Z,79.03
2022-08-26T03:37:05.940Z,79.31
2022-08-26T03:39:32.624Z,78.92
2022-08-26T03:41:59.599Z,78.06
2022-08-26T03:44:26.658Z,78.35
2022-08-26T03:46:54.584Z,78.15
2022-08-26T03:49:21.607Z,78.22
2022-08-26T03:51:48.059Z,78.20
2022-08-26T03:54:14.835Z,78.27
2022-08-26T03:56:41.680Z,78.44
2022-08-26T03:59:08.762Z,78.70
2022-08-26T04:01:36.235Z,79.25
2022-08-26T04:04:03.397Z,79.67
2022-08-26T04:06:37.998Z,80.04
2022-08-26T04:09:09.715Z,80.40
2022-08-26T04:11:38.605Z,80.99
2022-08-26T04:14:14.030Z,81.34
2022-08-26T04:16:45.211Z,81.55
2022-08-26T04:19:13.760Z,81.29
2022-08-26T04:21:41.277Z,81.15
2022-08-26T04:24:12.247Z,80.65
2022-08-26T04:26:42.808Z,80.24
2022-08-26T04:29:19.318Z,79.99
2022-08-26T04:31:48.034Z,79.37
2022-08-26T04:34:15.602Z,79.43
2022-08-26T04:36:43.174Z,79.96
2022-08-26T04:39:16.621Z,80.12
2022-08-26T04:41:45.525Z,79.61
2022-08-26T04:44:12.852Z,79.20
2022-08-26T04:46:43.744Z,78.58
2022-08-26T04:49:11.699Z,78.44
2022-08-26T04:51:39.627Z,78.57
2022-08-26T04:54:07.322Z,79.15
2022-08-26T04:56:38.087Z,79.25
2022-08-26T04:59:08.153Z,79.06
2022-08-26T05:01:49.098Z,79.17
2022-08-26T05:04:18.930Z,78.91
2022-08-26T05:06:46.753Z,79.16
2022-08-26T05:09:14.106Z,79.75
2022-08-26T05:11:41.938Z,79.63
2022-08-26T05:14:08.435Z,79.75
2022-08-26T05:16:34.955Z,79.64
2022-08-26T05:19:01.468Z,79.12
2022-08-26T05:21:29.152Z,79.13
2022-08-26T05:23:56.517Z,79.43
2022-08-26T05:26:28.827Z,79.10
2022-08-26T05:28:56.589Z,78.51
2022-08-26T05:31:27.278Z,78.21
2022-08-26T05:33:55.378Z,77.92
2022-08-26T05:36:26.930Z,77.46
2022-08-26T05:38:55.129Z,77.14
2022-08-26T05:41:36.459Z,76.77
2022-08-26T05:44:06.833Z,76.83
2022-08-26T05:46:33.765Z,76.31
2022-08-26T05:49:00.995Z,75.78
2022-08-26T05:51:27.581Z,75.58
2022-08-26T05:53:57.048Z,74.61
2022-08-26T05:56:26.052Z,73.59
2022-08-26T05:58:52.557Z,73.39
2022-08-26T06:01:27.651Z,73.15
2022-08-26T06:04:01.737Z,73.15
2022-08-26T06:06:31.707Z,72.93
2022-08-26T06:09:01.210Z,71.70
2022-08-26T06:11:29.576Z,70.82
2022-08-26T06:14:02.716Z,70.57
2022-08-26T06:16:30.749Z,70.21
2022-08-26T06:18:57.595Z,69.70
2022-08-26T06:21:27.812Z,68.41
2022-08-26T06:24:15.962Z,68.11
2022-08-26T06:26:50.357Z,68.18
2022-08-26T06:29:24.059Z,67.33
2022-08-26T06:31:52.827Z,67.09
2022-08-26T06:34:20.030Z,66.87
2022-08-26T06:36:47.754Z,66.10
2022-08-26T06:39:16.125Z,62.81
2022-08-26T06:41:44.954Z,57.89
2022-08-26T06:44:13.292Z,53.58
2022-08-26T06:46:41.627Z,50.89
2022-08-26T06:49:12.381Z,48.24
2022-08-26T06:51:40.796Z,48.47
2022-08-26T06:54:10.191Z,48.49
2022-08-26T06:56:42.666Z,49.82
2022-08-26T06:59:11.180Z,49.48
2022-08-26T07:01:44.841Z,49.00
2022-08-26T07:04:15.510Z,48.40
2022-08-26T07:06:48.778Z,47.05
2022-08-26T07:09:16.146Z,46.47
2022-08-26T07:11:44.445Z,46.11
2022-08-26T07:14:12.053Z,46.58
2022-08-26T07:16:39.711Z,46.75
2022-08-26T07:19:11.161Z,47.80
2022-08-26T07:21:40.260Z,48.40
2022-08-26T07:24:07.976Z,50.44
2022-08-26T07:26:34.862Z,51.45
2022-08-26T07:29:02.315Z,51.93
2022-08-26T07:31:39.589Z,52.50
2022-08-26T07:34:10.600Z,54.20
2022-08-26T07:36:37.512Z,54.21
2022-08-26T07:39:04.381Z,52.28
2022-08-26T07:41:31.011Z,49.08
2022-08-26T07:43:58.632Z,44.97
2022-08-26T07:46:27.075Z,41.72
2022-08-26T07:48:57.580Z,39.24
2022-08-26T07:51:24.895Z,39.18
2022-08-26T07:53:52.758Z,37.49
2022-08-26T07:56:23.050Z,35.47
2022-08-26T07:58:52.115Z,37.86
2022-08-26T08:01:20.701Z,41.97
2022-08-26T08:03:50.501Z,39.50
2022-08-26T08:06:21.214Z,39.50
2022-08-26T08:08:50.709Z,42.18
2022-08-26T08:11:22.657Z,42.73
2022-08-26T08:13:56.242Z,43.13
2022-08-26T08:16:25.005Z,43.01
2022-08-26T08:18:53.492Z,41.01
2022-08-26T08:21:23.644Z,39.44
2022-08-26T08:23:53.095Z,40.90
2022-08-26T08:26:20.249Z,43.28
2022-08-26T08:28:48.038Z,45.10
2022-08-26T08:31:45.061Z,46.19
2022-08-26T08:34:09.754Z,45.55
2022-08-26T08:36:36.478Z,43.20
2022-08-26T08:39:03.720Z,42.96
2022-08-26T08:41:58.667Z,42.02
2022-08-26T08:46:58.708Z,43.26
2022-08-26T08:49:26.248Z,44.81
2022-08-26T08:52:27.052Z,46.84
2022-08-26T08:54:56.377Z,48.93
2022-08-26T08:57:43.297Z,48.66
2022-08-26T09:00:21.610Z,41.79
2022-08-26T09:03:01.280Z,37.04
2022-08-26T09:05:40.115Z,36.57
2022-08-26T09:08:14.828Z,35.07
2022-08-26T09:10:47.570Z,33.50
2022-08-26T09:13:19.588Z,32.56
2022-08-26T09:16:03.209Z,34.54
2022-08-26T09:18:51.572Z,38.08
2022-08-26T09:21:20.297Z,39.09
2022-08-26T09:23:50.992Z,40.24
2022-08-26T09:26:48.998Z,42.23
2022-08-26T09:29:23.183Z,40.28
2022-08-26T09:31:51.775Z,37.96
2022-08-26T09:34:27.953Z,36.75
2022-08-26T09:36:59.634Z,37.18
2022-08-26T09:39:37.689Z,39.62
2022-08-26T09:42:07.594Z,41.80
2022-08-26T09:44:51.014Z,40.16
2022-08-26T09:47:23.337Z,39.81
2022-08-26T09:50:09.529Z,36.03
2022-08-26T09:52:36.513Z,34.94
2022-08-26T09:55:09.731Z,37.23
2022-08-26T09:57:45.942Z,38.25
2022-08-26T10:00:38.454Z,37.13
2022-08-26T10:03:22.636Z,34.10
2022-08-26T10:06:02.114Z,33.67
2022-08-26T10:08:36.726Z,34.03
2022-08-26T10:11:11.189Z,34.36
2022-08-26T10:13:45.305Z,35.05
2022-08-26T10:16:33.336Z,34.45
2022-08-26T10:19:17.743Z,36.44
2022-08-26T10:22:00.340Z,37.04
2022-08-26T10:24:59.164Z,39.42
2022-08-26T10:27:32.944Z,39.93
2022-08-26T10:30:10.807Z,39.80
2022-08-26T10:32:41.827Z,38.64
2022-08-26T10:35:12.526Z,37.56
2022-08-26T10:37:46.709Z,37.40
2022-08-26T10:40:38.367Z,37.56
2022-08-26T10:43:11.051Z,37.89
2022-08-26T10:45:46.729Z,37.86
2022-08-26T10:48:24.048Z,38.81
2022-08-26T10:50:51.540Z,38.58
2022-08-26T10:53:28.607Z,38.12
2022-08-26T10:56:20.368Z,38.21
2022-08-26T10:59:20.998Z,38.07
2022-08-26T11:02:07.276Z,38.03
2022-08-26T11:04:57.272Z,36.66
2022-08-26T11:07:40.358Z,36.15
2022-08-26T11:10:22.532Z,36.04
2022-08-26T11:12:52.502Z,37.18
2022-08-26T11:15:20.067Z,37.54
2022-08-26T11:17:55.289Z,35.40
2022-08-26T11:20:27.921Z,35.85
2022-08-26T11:22:59.599Z,36.63
2022-08-26T11:25:30.183Z,35.60
2022-08-26T11:28:00.899Z,34.90
2022-08-26T11:30:35.851Z,34.18
2022-08-26T11:33:02.422Z,35.01
2022-08-26T11:35:29.079Z,34.61
2022-08-26T11:38:10.942Z,35.18
2022-08-26T11:40:38.463Z,34.57
2022-08-26T11:43:11.183Z,36.01
2022-08-26T11:45:44.670Z,32.26
2022-08-26T11:48:31.530Z,32.10
2022-08-26T11:51:11.156Z,32.39
2022-08-26T11:53:41.045Z,33.58
2022-08-26T11:56:12.350Z,34.22
2022-08-26T11:58:43.707Z,33.80
2022-08-26T12:01:13.359Z,33.73
2022-08-26T12:03:49.666Z,32.63
2022-08-26T12:06:29.632Z,33.49
2022-08-26T12:09:01.009Z,33.01
2022-08-26T12:11:31.269Z,31.89
2022-08-26T12:14:01.905Z,31.89
2022-08-26T12:16:32.002Z,31.96
2022-08-26T12:18:59.902Z,32.54
2022-08-26T12:21:34.652Z,32.09
2022-08-26T12:24:03.333Z,33.48
2022-08-26T12:26:34.483Z,35.12
2022-08-26T12:29:12.649Z,36.32
2022-08-26T12:31:47.882Z,35.09
2022-08-26T12:34:17.624Z,33.57
2022-08-26T12:36:48.870Z,31.92
2022-08-26T12:39:38.175Z,31.30
2022-08-26T12:42:15.673Z,32.06
2022-08-26T12:44:54.723Z,32.93
2022-08-26T12:47:43.938Z,33.19
2022-08-26T12:50:19.272Z,33.78
2022-08-26T12:53:45.128Z,35.22
2022-08-26T12:56:39.468Z,35.10
2022-08-26T13:00:39.181Z,36.24
2022-08-26T13:04:05.258Z,38.46
2022-08-26T13:06:32.527Z,38.94
2022-08-26T13:09:42.115Z,38.93
2022-08-26T13:12:42.988Z,38.74
2022-08-26T13:15:29.970Z,39.02
2022-08-26T13:18:38.620Z,37.96
2022-08-26T13:21:06.659Z,37.77
2022-08-26T13:23:33.453Z,37.07
2022-08-26T13:26:04.031Z,36.57
2022-08-26T13:28:33.660Z,35.53
2022-08-26T13:31:00.531Z,36.24
2022-08-26T13:33:27.932Z,35.70
2022-08-26T13:35:54.976Z,36.25
2022-08-26T13:38:32.911Z,36.54
2022-08-26T13:41:00.761Z,36.01
2022-08-26T13:43:37.676Z,36.34
2022-08-26T13:46:09.300Z,37.35
2022-08-26T13:48:37.069Z,37.89
2022-08-26T13:51:11.296Z,38.27
2022-08-26T13:53:38.647Z,38.07
2022-08-26T13:56:11.048Z,38.08
2022-08-26T13:58:38.293Z,38.62
2022-08-26T14:01:06.205Z,39.02
2022-08-26T14:03:37.075Z,39.53
2022-08-26T14:06:08.203Z,39.61
2022-08-26T14:08:38.839Z,40.21
2022-08-26T14:11:08.323Z,41.61
2022-08-26T14:16:32.208Z,44.53
2022-08-26T14:19:02.795Z,45.35
2022-08-26T14:24:21.160Z,46.99
2022-08-26T14:26:54.198Z,46.63
2022-08-26T14:32:22.748Z,47.58
2022-08-26T14:34:54.147Z,48.38
2022-08-26T14:38:02.708Z,50.98
2022-08-26T14:40:31.217Z,53.46
2022-08-26T14:43:00.854Z,53.42
2022-08-26T14:45:28.283Z,53.64
2022-08-26T14:47:57.481Z,54.00
2022-08-26T14:50:27.548Z,54.70
2022-08-26T14:53:12.833Z,55.06
2022-08-26T14:55:42.063Z,55.64
2022-08-26T14:58:13.639Z,57.02
2022-08-26T15:00:40.239Z,57.05
2022-08-26T15:03:07.576Z,57.04
2022-08-26T15:05:34.661Z,58.83
2022-08-26T15:08:26.686Z,59.93
2022-08-26T15:11:44.085Z,61.93
2022-08-26T15:21:56.343Z,62.37
2022-08-26T15:29:18.040Z,65.44
2022-08-26T15:31:46.058Z,69.00
2022-08-26T15:34:16.669Z,69.74
2022-08-26T15:36:48.146Z,69.97
2022-08-26T15:42:25.188Z,71.45
2022-08-26T15:44:52.355Z,73.11
2022-08-26T15:47:19.248Z,71.88
2022-08-26T15:49:46.043Z,72.82
2022-08-26T15:52:12.820Z,71.90
2022-08-26T15:54:39.676Z,71.82
2022-08-26T15:57:10.825Z,70.77
2022-08-26T15:59:38.422Z,70.53
2022-08-26T16:02:05.559Z,72.50
2022-08-26T16:04:32.317Z,72.05
2022-08-26T16:06:59.398Z,73.73
2022-08-26T16:09:27.183Z,74.38
2022-08-26T16:11:55.841Z,74.59
2022-08-26T16:14:23.621Z,76.20
2022-08-26T16:16:50.647Z,74.96
2022-08-26T16:19:17.993Z,75.52
2022-08-26T16:21:46.232Z,73.59
2022-08-26T16:24:13.711Z,72.71
2022-08-26T16:26:42.554Z,74.10
2022-08-26T16:29:13.919Z,74.01
2022-08-26T16:31:41.957Z,75.67
2022-08-26T16:34:09.318Z,76.73
2022-08-26T16:36:38.091Z,76.98
2022-08-26T16:39:06.222Z,79.02
2022-08-26T16:41:33.833Z,81.31
2022-08-26T16:44:01.186Z,83.84
2022-08-26T16:46:29.035Z,86.26
2022-08-26T16:49:45.267Z,89.99
2022-08-26T16:55:22.962Z,91.02
2022-08-26T16:57:54.531Z,90.96
2022-08-26T17:00:34.660Z,90.78
2022-08-26T17:03:06.400Z,91.31
2022-08-26T17:08:28.454Z,92.03
2022-08-26T17:13:58.306Z,90.78
2022-08-26T17:35:40.261Z,91.17
2022-08-26T17:38:08.112Z,91.36
2022-08-26T17:40:35.827Z,91.27
2022-08-26T17:43:10.337Z,91.50
2022-08-26T17:45:40.514Z,91.74
2022-08-26T17:48:15.451Z,90.60
2022-08-26T17:50:45.459Z,90.80
2022-08-26T17:53:18.912Z,90.75
2022-08-26T17:55:49.913Z,89.56
2022-08-26T17:58:19.878Z,88.69
2022-08-26T18:00:49.049Z,87.34
2022-08-26T18:03:16.395Z,87.06
2022-08-26T18:05:49.296Z,86.99
2022-08-26T18:08:24.948Z,87.04
2022-08-26T18:10:55.514Z,86.24
2022-08-26T18:13:24.041Z,84.75
2022-08-26T18:15:52.670Z,85.38
2022-08-26T18:18:19.848Z,85.18
2022-08-26T18:20:47.297Z,85.11
2022-08-26T18:23:20.381Z,85.45
2022-08-26T18:25:47.223Z,85.70
2022-08-26T18:28:15.732Z,85.03
2022-08-26T18:30:46.862Z,85.42
2022-08-26T18:33:15.096Z,84.99
2022-08-26T18:35:49.265Z,83.51
2022-08-26T18:38:22.456Z,83.96
2022-08-26T18:40:54.331Z,85.65
2022-08-26T18:43:22.430Z,87.26
2022-08-26T18:45:50.198Z,87.87
2022-08-26T18:48:17.547Z,88.23
2022-08-26T18:50:50.129Z,88.92
2022-08-26T18:53:27.962Z,88.89
2022-08-26T18:55:57.185Z,87.78
2022-08-26T18:58:24.620Z,86.84
2022-08-26T19:00:52.547Z,86.56
2022-08-26T19:03:20.275Z,87.16
2022-08-26T19:05:50.522Z,87.59
2022-08-26T19:08:17.752Z,87.69
2022-08-26T19:10:46.764Z,87.79
2022-08-26T19:13:16.686Z,88.05
2022-08-26T19:15:46.001Z,88.62
2022-08-26T19:21:03.728Z,88.85
2022-08-26T19:23:35.759Z,89.11
2022-08-26T19:26:06.513Z,87.93
2022-08-26T19:28:33.982Z,87.80
2022-08-26T19:31:03.572Z,87.59
2022-08-26T19:33:31.901Z,88.25
2022-08-26T19:36:04.796Z,89.03
2022-08-26T19:38:36.480Z,89.08
2022-08-26T19:41:06.606Z,89.00
2022-08-26T19:43:33.649Z,89.04
2022-08-26T19:46:01.263Z,88.72
2022-08-26T19:48:39.301Z,89.17
2022-08-26T19:51:08.161Z,88.95
2022-08-26T19:53:35.925Z,89.58
2022-08-26T19:56:12.064Z,90.06
2022-08-26T19:58:39.408Z,90.10
2022-08-26T20:01:07.149Z,90.70
2022-08-26T20:03:35.373Z,90.13
2022-08-26T20:06:07.859Z,90.25
2022-08-26T20:08:36.320Z,90.55
2022-08-26T20:11:06.015Z,90.79
2022-08-26T20:13:33.397Z,90.79
2022-08-26T20:16:00.144Z,90.59
2022-08-26T20:18:45.385Z,91.04
2022-08-26T20:21:28.053Z,91.33
2022-08-26T20:23:59.240Z,92.44
2022-08-26T20:26:27.446Z,92.21
2022-08-26T20:28:55.034Z,91.94
2022-08-26T20:31:21.781Z,92.27
2022-08-26T20:33:48.921Z,91.68
2022-08-26T20:36:20.223Z,91.17
2022-08-26T20:38:49.223Z,90.79
2022-08-26T20:41:17.314Z,91.44
2022-08-26T20:43:44.433Z,91.39
2022-08-26T20:46:12.789Z,91.57
2022-08-26T20:48:45.916Z,91.59
2022-08-26T20:51:12.907Z,91.25
2022-08-26T20:53:39.790Z,90.75
2022-08-26T20:56:09.591Z,90.38
2022-08-26T20:58:37.464Z,89.81
2022-08-26T21:01:07.973Z,89.59
2022-08-26T21:03:36.569Z,88.67
2022-08-26T21:06:04.018Z,88.79
2022-08-26T21:08:32.030Z,88.64
2022-08-26T21:11:00.395Z,88.28
2022-08-26T21:13:29.033Z,87.63
2022-08-26T21:16:02.978Z,86.78
2022-08-26T21:18:30.007Z,86.50
2022-08-26T21:20:56.779Z,86.34
2022-08-26T21:23:26.409Z,85.32
2022-08-26T21:25:55.758Z,85.08
2022-08-26T21:28:23.464Z,84.25
2022-08-26T21:30:49.974Z,83.03
2022-08-26T21:33:16.511Z,83.09
2022-08-26T21:35:51.543Z,83.73
2022-08-26T21:38:23.664Z,83.31
2022-08-26T21:40:59.463Z,82.88
2022-08-26T21:43:35.082Z,82.71
2022-08-26T21:46:14.542Z,81.85
2022-08-26T21:48:50.716Z,81.94
2022-08-26T21:51:20.932Z,81.43
2022-08-26T21:53:48.824Z,81.54
2022-08-26T21:56:18.061Z,81.22
2022-08-26T21:58:45.604Z,82.40
2022-08-26T22:01:15.663Z,81.92
2022-08-26T22:03:46.797Z,82.59
2022-08-26T22:06:16.612Z,83.15
2022-08-26T22:08:43.541Z,83.64
2022-08-26T22:11:10.511Z,83.63
2022-08-26T22:13:39.405Z,82.95
2022-08-26T22:16:08.021Z,82.55
2022-08-26T22:18:38.442Z,82.78
2022-08-26T22:21:09.078Z,82.41
2022-08-26T22:23:38.150Z,82.19
2022-08-26T22:26:07.357Z,81.36
2022-08-26T22:28:35.467Z,81.54
2022-08-26T22:31:02.584Z,82.89
2022-08-26T22:33:29.487Z,83.20
2022-08-26T22:35:56.069Z,83.29
2022-08-26T22:38:28.914Z,83.09
2022-08-26T22:40:56.477Z,83.61
2022-08-26T22:43:24.549Z,83.76
2022-08-26T22:45:52.825Z,83.64
2022-08-26T22:48:22.421Z,83.82
2022-08-26T22:50:50.399Z,83.68
2022-08-26T22:53:18.399Z,83.20
2022-08-26T22:55:45.572Z,83.33
2022-08-26T22:58:15.244Z,83.42
2022-08-26T23:00:43.644Z,83.78
2022-08-26T23:03:11.803Z,83.66
2022-08-26T23:05:39.479Z,83.64
2022-08-26T23:08:06.637Z,83.37
2022-08-26T23:10:33.232Z,83.73
2022-08-26T23:13:00.132Z,84.04
2022-08-26T23:15:27.028Z,84.06
2022-08-26T23:17:58.835Z,83.97
2022-08-26T23:20:26.482Z,83.94
2022-08-26T23:22:53.577Z,83.21
2022-08-26T23:25:20.798Z,83.32
2022-08-26T23:27:47.986Z,83.58
2022-08-26T23:30:19.545Z,83.56
2022-08-26T23:32:46.301Z,83.58
2022-08-26T23:35:14.198Z,83.80
2022-08-26T23:37:44.250Z,83.72
2022-08-26T23:40:16.139Z,84.46
2022-08-26T23:42:43.013Z,84.49
2022-08-26T23:45:12.858Z,84.60
2022-08-26T23:47:41.185Z,84.28
2022-08-26T23:50:08.931Z,83.94
2022-08-26T23:52:54.071Z,84.49
2022-08-26T23:55:20.961Z,85.00
2022-08-26T23:57:47.773Z,84.85
